Time;durP1;ratioP1;P1;durP2;ratioP2;P2;SDS_P1;SDS_P2;PMS_P1;PMS_P2;Temp;Humidity;BMP_temperature;BMP_pressure;BME280_temperature;BME280_humidity;BME280_pressure;Samples;Min_cycle;Max_cycle;Signal;HPM_P1;HPM_P2
2023/12/28 00:00:18;;;;;;;5.13;1.40;;;27.90;51.70;;;;;;5065080;28;20234;-69
2023/12/28 00:02:45;;;;;;;2.43;1.10;;;27.90;52.00;;;;;;5065102;28;20217;-70
2023/12/28 00:05:13;;;;;;;1.23;0.97;;;27.70;52.10;;;;;;5056018;28;20176;-71
2023/12/28 00:07:40;;;;;;;2.10;1.10;;;27.40;53.00;;;;;;5064026;28;20260;-72
2023/12/28 00:10:08;;;;;;;6.77;1.27;;;27.40;53.30;;;;;;5058339;28;20268;-72
2023/12/28 00:12:35;;;;;;;3.20;1.30;;;27.50;53.10;;;;;;5063083;28;20193;-72
2023/12/28 00:15:03;;;;;;;5.87;1.50;;;27.60;52.20;;;;;;5058742;28;20179;-70
2023/12/28 00:17:30;;;;;;;4.63;1.50;;;27.90;52.10;;;;;;5070388;28;20187;-68
2023/12/28 00:19:58;;;;;;;4.83;1.27;;;28.20;51.40;;;;;;5063168;28;20245;-70
2023/12/28 00:22:25;;;;;;;5.60;1.60;;;28.40;50.00;;;;;;5050985;28;20188;-71
2023/12/28 00:24:52;;;;;;;5.53;1.50;;;28.70;50.10;;;;;;5059151;28;20271;-73
2023/12/28 00:27:19;;;;;;;3.57;1.30;;;28.50;50.40;;;;;;5056550;28;20180;-71
2023/12/28 00:29:47;;;;;;;2.13;1.27;;;28.70;49.10;;;;;;5032097;28;20695;-70
2023/12/28 00:32:14;;;;;;;4.73;1.20;;;28.80;48.10;;;;;;5059443;28;20207;-71
2023/12/28 00:34:41;;;;;;;2.57;1.20;;;29.10;47.30;;;;;;5065246;28;20217;-74
2023/12/28 00:37:09;;;;;;;2.43;1.10;;;29.00;46.90;;;;;;5043844;28;20214;-74
2023/12/28 00:39:36;;;;;;;6.47;1.20;;;29.40;46.40;;;;;;5064464;28;20264;-72
2023/12/28 00:42:05;;;;;;;3.37;1.40;;;29.50;45.70;;;;;;5063571;28;20234;-72
2023/12/28 00:44:32;;;;;;;2.63;1.30;;;29.50;46.10;;;;;;5064479;28;20264;-72
2023/12/28 00:46:59;;;;;;;2.17;1.27;;;29.50;45.70;;;;;;5056977;28;20194;-75
2023/12/28 00:49:27;;;;;;;1.93;1.30;;;29.80;45.90;;;;;;5062226;28;20271;-74
2023/12/28 00:51:54;;;;;;;4.10;1.20;;;30.00;45.60;;;;;;5060674;28;20206;-73
2023/12/28 00:54:21;;;;;;;2.20;1.23;;;30.00;45.20;;;;;;5062105;28;20190;-76
2023/12/28 00:56:48;;;;;;;7.07;1.97;;;30.00;43.80;;;;;;5050338;28;20192;-75
2023/12/28 00:59:16;;;;;;;7.23;1.23;;;29.90;45.50;;;;;;5060749;28;20668;-73
2023/12/28 01:01:43;;;;;;;2.50;1.00;;;30.10;44.70;;;;;;5064905;28;20187;-75
2023/12/28 01:04:11;;;;;;;4.23;1.20;;;30.30;44.80;;;;;;5060998;28;20637;-75
2023/12/28 01:06:38;;;;;;;3.60;1.20;;;30.40;44.80;;;;;;5055851;28;20262;-74
2023/12/28 01:09:07;;;;;;;3.53;1.23;;;30.70;43.20;;;;;;5062495;28;20183;-74
2023/12/28 01:11:35;;;;;;;4.97;1.40;;;30.60;43.90;;;;;;5038497;28;20195;-74
2023/12/28 01:14:02;;;;;;;6.07;1.23;;;31.00;44.50;;;;;;5056382;28;21545;-74
2023/12/28 01:16:30;;;;;;;3.50;1.20;;;31.20;42.40;;;;;;5067660;28;20210;-76
2023/12/28 01:18:57;;;;;;;3.27;1.33;;;31.10;43.10;;;;;;5062967;28;20654;-72
2023/12/28 01:21:24;;;;;;;3.80;1.40;;;30.70;45.90;;;;;;5050331;28;20623;-75
2023/12/28 01:23:52;;;;;;;4.30;1.47;;;30.80;45.60;;;;;;5055284;28;20183;-69
2023/12/28 01:26:19;;;;;;;5.30;1.30;;;30.30;46.30;;;;;;5058836;28;20187;-68
2023/12/28 01:28:47;;;;;;;2.85;1.30;;;30.60;45.30;;;;;;5054497;28;20199;-72
2023/12/28 01:31:14;;;;;;;1.60;1.17;;;30.50;44.80;;;;;;5045061;28;20180;-70
2023/12/28 01:33:41;;;;;;;4.15;1.20;;;30.10;45.60;;;;;;5057994;28;20187;-73
2023/12/28 01:36:19;;;;;;;6.23;1.33;;;30.00;46.50;;;;;;5061943;28;20244;-69
2023/12/28 01:38:46;;;;;;;17.60;3.73;;;30.30;46.30;;;;;;5069837;28;20669;-73
2023/12/28 01:41:15;;;;;;;2.90;1.10;;;30.50;45.60;;;;;;5056705;28;20227;-74
2023/12/28 01:43:43;;;;;;;2.50;0.93;;;30.10;45.70;;;;;;5040457;28;20185;-73
2023/12/28 01:46:21;;;;;;;1.60;1.13;;;29.90;46.60;;;;;;5045396;28;20227;-71
2023/12/28 01:48:51;;;;;;;3.13;1.37;;;30.10;46.00;;;;;;5058488;28;20175;-72
2023/12/28 01:51:19;;;;;;;4.97;1.30;;;30.20;45.20;;;;;;5065172;28;20179;-67
2023/12/28 01:53:50;;;;;;;3.23;1.33;;;30.40;45.80;;;;;;5057956;28;20196;-68
2023/12/28 01:56:20;;;;;;;2.25;1.48;;;30.80;44.80;;;;;;5054341;28;20617;-69
2023/12/28 01:58:52;;;;;;;3.57;1.17;;;30.80;45.10;;;;;;5053602;28;20234;-68
2023/12/28 02:01:25;;;;;;;2.92;1.17;;;31.10;44.20;;;;;;5041268;28;20689;-69
2023/12/28 02:03:54;;;;;;;4.93;1.80;;;31.20;44.60;;;;;;5075017;28;20191;-67
2023/12/28 02:06:28;;;;;;;3.27;1.10;;;31.50;45.20;;;;;;5065700;28;20191;-68
2023/12/28 02:08:57;;;;;;;2.30;1.10;;;31.80;44.40;;;;;;5061184;28;20684;-69
2023/12/28 02:11:24;;;;;;;7.15;2.33;;;31.70;45.30;;;;;;5065516;28;20175;-69
2023/12/28 02:13:52;;;;;;;44.67;8.63;;;31.30;46.00;;;;;;5065261;28;20184;-68
2023/12/28 02:16:30;;;;;;;14.57;3.20;;;31.70;45.50;;;;;;5068706;28;20183;-68
2023/12/28 02:19:01;;;;;;;54.10;8.75;;;31.50;45.20;;;;;;5068091;28;20203;-68
2023/12/28 02:21:35;;;;;;;14.13;3.30;;;31.40;46.20;;;;;;5039983;28;20194;-68
2023/12/28 02:24:06;;;;;;;10.90;2.78;;;31.40;46.10;;;;;;5034076;28;20216;-69
2023/12/28 02:26:38;;;;;;;5.53;1.60;;;31.30;45.60;;;;;;5064672;28;20261;-67
2023/12/28 02:29:09;;;;;;;3.28;0.93;;;31.50;46.60;;;;;;5054090;28;20187;-69
2023/12/28 02:31:51;;;;;;;3.65;1.00;;;31.20;45.90;;;;;;5040713;28;20191;-68
2023/12/28 02:34:26;;;;;;;3.22;1.25;;;30.50;47.40;;;;;;5068510;28;20218;-68
2023/12/28 02:36:57;;;;;;;2.80;1.23;;;30.40;48.10;;;;;;5060880;28;20180;-67
2023/12/28 02:39:27;;;;;;;6.47;1.83;;;29.90;49.20;;;;;;5037490;28;20319;-68
2023/12/28 02:41:55;;;;;;;3.80;1.37;;;29.80;49.70;;;;;;5052637;28;20235;-68
2023/12/28 02:44:30;;;;;;;3.00;1.10;;;30.00;48.60;;;;;;5039441;28;20525;-67
2023/12/28 02:46:58;;;;;;;8.70;2.57;;;29.90;49.50;;;;;;5021431;28;20558;-69
2023/12/28 02:49:26;;;;;;;11.30;2.70;;;29.80;48.90;;;;;;5029016;28;20187;-68
2023/12/28 02:51:54;;;;;;;2.37;1.30;;;29.70;49.20;;;;;;5059176;28;20246;-67
2023/12/28 02:54:21;;;;;;;5.88;1.40;;;30.50;47.90;;;;;;5056938;28;20180;-69
2023/12/28 02:56:49;;;;;;;3.30;1.10;;;30.20;48.30;;;;;;5045519;28;20198;-68
2023/12/28 02:59:16;;;;;;;1.85;0.75;;;30.30;47.80;;;;;;5062274;28;20211;-70
2023/12/28 03:01:44;;;;;;;2.77;0.97;;;30.20;47.10;;;;;;5061561;28;20188;-67
2023/12/28 03:04:11;;;;;;;8.73;1.55;;;31.00;45.70;;;;;;5057037;28;20184;-68
2023/12/28 03:06:40;;;;;;;0.77;0.70;;;30.40;45.60;;;;;;5056893;28;21749;-70
2023/12/28 03:09:08;;;;;;;2.77;0.90;;;29.90;46.10;;;;;;5047954;28;20191;-68
2023/12/28 03:11:36;;;;;;;2.23;0.80;;;29.70;47.60;;;;;;5057845;28;20176;-68
2023/12/28 03:14:03;;;;;;;3.90;0.90;;;29.70;47.50;;;;;;5059814;28;20232;-68
2023/12/28 03:16:31;;;;;;;7.33;1.20;;;30.30;46.70;;;;;;5047407;28;20219;-68
2023/12/28 03:18:59;;;;;;;4.22;0.80;;;30.70;45.50;;;;;;5057218;28;20211;-69
2023/12/28 03:21:26;;;;;;;2.13;0.90;;;30.10;45.60;;;;;;5058268;28;20241;-71
2023/12/28 03:23:54;;;;;;;3.67;0.90;;;30.40;45.60;;;;;;5042921;28;20195;-70
2023/12/28 03:26:21;;;;;;;3.17;0.70;;;30.60;45.50;;;;;;5058615;28;20187;-71
2023/12/28 03:28:49;;;;;;;1.23;0.88;;;30.60;45.60;;;;;;5061899;28;20203;-69
2023/12/28 03:31:16;;;;;;;1.85;0.88;;;30.60;45.30;;;;;;5061215;28;20259;-71
2023/12/28 03:33:45;;;;;;;2.30;1.00;;;30.90;44.30;;;;;;5056114;28;20184;-70
2023/12/28 03:36:19;;;;;;;2.97;1.58;;;30.10;45.80;;;;;;5034022;28;20180;-68
2023/12/28 03:38:47;;;;;;;2.47;1.00;;;30.70;44.80;;;;;;5055665;28;20256;-71
2023/12/28 03:41:21;;;;;;;3.08;0.90;;;31.20;43.70;;;;;;5043539;28;20228;-69
2023/12/28 03:43:50;;;;;;;4.85;1.02;;;30.60;45.20;;;;;;5044685;28;20210;-69
2023/12/28 03:46:18;;;;;;;2.28;0.90;;;30.90;44.90;;;;;;5027334;28;20196;-71
2023/12/28 03:48:46;;;;;;;2.50;0.80;;;30.80;44.90;;;;;;5036133;28;20230;-69
2023/12/28 03:51:17;;;;;;;2.53;0.65;;;30.40;45.60;;;;;;5029381;28;20183;-67
2023/12/28 03:53:45;;;;;;;1.85;1.02;;;30.50;45.80;;;;;;5038239;28;20704;-68
2023/12/28 03:56:26;;;;;;;3.47;0.85;;;31.00;45.00;;;;;;5039318;28;20266;-68
2023/12/28 03:58:54;;;;;;;3.58;0.90;;;31.50;43.50;;;;;;5038214;28;20632;-70
2023/12/28 04:01:26;;;;;;;1.98;0.63;;;31.80;42.50;;;;;;5034713;28;20181;-68
2023/12/28 04:03:53;;;;;;;2.05;0.80;;;32.20;42.00;;;;;;5034076;28;20276;-72
2023/12/28 04:06:21;;;;;;;1.40;0.80;;;32.20;42.20;;;;;;5031652;28;20647;-71
2023/12/28 04:08:48;;;;;;;2.55;0.80;;;32.60;41.00;;;;;;5034674;28;20191;-75
2023/12/28 04:11:16;;;;;;;2.65;0.90;;;31.40;41.70;;;;;;5030338;28;20259;-75
2023/12/28 04:13:44;;;;;;;3.22;1.00;;;31.70;41.90;;;;;;5035045;28;20553;-68
2023/12/28 04:16:15;;;;;;;3.30;0.60;;;31.50;42.70;;;;;;5017386;28;20208;-69
2023/12/28 04:18:44;;;;;;;2.25;0.68;;;30.80;43.60;;;;;;5034753;28;20701;-68
2023/12/28 04:21:12;;;;;;;5.68;0.88;;;30.60;44.50;;;;;;5049654;28;20642;-68
2023/12/28 04:23:41;;;;;;;2.58;0.73;;;30.10;45.30;;;;;;5039292;28;20188;-70
2023/12/28 04:26:09;;;;;;;3.80;0.70;;;29.60;47.10;;;;;;5039629;28;20192;-67
2023/12/28 04:28:36;;;;;;;0.73;0.43;;;29.40;47.00;;;;;;5044705;28;20200;-68
2023/12/28 04:31:07;;;;;;;2.50;0.60;;;29.00;48.00;;;;;;5037922;28;20201;-69
2023/12/28 04:33:34;;;;;;;1.52;0.70;;;29.30;47.60;;;;;;5043019;28;20207;-67
2023/12/28 04:36:04;;;;;;;1.42;0.75;;;30.20;44.90;;;;;;5036825;28;20194;-68
2023/12/28 04:38:32;;;;;;;2.97;0.90;;;30.70;44.00;;;;;;5039186;28;20728;-68
2023/12/28 04:41:00;;;;;;;1.70;0.60;;;31.30;43.60;;;;;;5041602;28;20239;-69
2023/12/28 04:43:27;;;;;;;2.47;0.80;;;31.90;42.00;;;;;;5043280;28;20187;-68
2023/12/28 04:45:55;;;;;;;2.97;0.88;;;32.50;41.10;;;;;;5044081;28;20180;-68
2023/12/28 04:48:25;;;;;;;2.58;0.70;;;32.50;39.00;;;;;;5046779;28;20179;-71
2023/12/28 04:50:53;;;;;;;3.70;0.77;;;32.60;40.30;;;;;;5037879;28;20704;-70
2023/12/28 04:53:21;;;;;;;5.55;0.60;;;32.60;40.00;;;;;;5033701;28;20192;-68
2023/12/28 04:55:48;;;;;;;1.77;0.70;;;32.30;40.50;;;;;;5039345;28;20189;-68
2023/12/28 04:58:15;;;;;;;1.60;0.80;;;32.50;40.60;;;;;;5044381;28;20630;-69
2023/12/28 05:00:43;;;;;;;1.88;0.65;;;32.80;40.10;;;;;;5043050;28;20216;-68
2023/12/28 05:03:10;;;;;;;1.00;0.50;;;32.60;39.40;;;;;;5043890;28;20267;-69
2023/12/28 05:05:37;;;;;;;3.03;0.57;;;32.30;41.80;;;;;;5035857;28;20199;-69
2023/12/28 05:08:05;;;;;;;1.85;0.60;;;32.00;42.40;;;;;;5036982;28;20185;-68
2023/12/28 05:10:32;;;;;;;2.58;0.77;;;31.80;43.10;;;;;;5042635;28;20190;-68
2023/12/28 05:13:00;;;;;;;0.60;0.60;;;32.20;42.60;;;;;;5054549;28;20622;-68
2023/12/28 05:15:27;;;;;;;1.17;0.60;;;32.10;43.20;;;;;;5047256;28;20184;-68
2023/12/28 05:17:55;;;;;;;2.38;0.75;;;31.20;46.10;;;;;;5049880;28;20668;-68
2023/12/28 05:20:22;;;;;;;2.75;0.70;;;31.20;47.40;;;;;;5051975;28;20570;-68
2023/12/28 05:22:49;;;;;;;2.70;0.57;;;32.20;45.40;;;;;;5044366;28;20192;-69
2023/12/28 05:25:17;;;;;;;6.47;0.80;;;33.30;42.50;;;;;;5039434;28;20187;-68
2023/12/28 05:27:44;;;;;;;1.98;0.60;;;34.00;42.10;;;;;;5019357;28;20189;-68
2023/12/28 05:30:12;;;;;;;3.45;1.13;;;33.90;41.10;;;;;;5046556;28;20720;-68
2023/12/28 05:32:39;;;;;;;1.08;0.65;;;32.90;43.10;;;;;;5051019;28;20206;-68
2023/12/28 05:35:07;;;;;;;1.58;0.70;;;33.30;42.10;;;;;;5050459;28;20713;-69
2023/12/28 05:37:34;;;;;;;3.75;1.00;;;33.30;42.00;;;;;;5041387;28;20180;-70
2023/12/28 05:40:02;;;;;;;1.52;0.77;;;33.70;41.20;;;;;;5044301;28;20219;-69
2023/12/28 05:42:30;;;;;;;1.10;0.70;;;33.30;40.80;;;;;;5064889;28;20207;-68
2023/12/28 05:44:57;;;;;;;1.83;0.55;;;33.10;40.20;;;;;;5063661;28;20191;-69
2023/12/28 05:47:24;;;;;;;2.13;0.70;;;32.80;41.10;;;;;;5061616;28;20172;-70
2023/12/28 05:49:51;;;;;;;3.42;0.90;;;33.40;39.50;;;;;;5065378;28;20195;-68
2023/12/28 05:52:19;;;;;;;3.53;0.75;;;33.70;39.30;;;;;;5062462;28;20613;-69
2023/12/28 05:54:47;;;;;;;1.60;0.68;;;33.50;40.50;;;;;;5064702;28;20183;-69
2023/12/28 05:57:15;;;;;;;2.17;0.77;;;33.90;40.10;;;;;;5063701;28;20179;-69
2023/12/28 05:59:42;;;;;;;1.38;0.60;;;33.70;40.20;;;;;;5066474;28;20218;-73
2023/12/28 06:02:09;;;;;;;2.08;0.68;;;33.70;39.70;;;;;;5061594;28;20330;-70
2023/12/28 06:04:37;;;;;;;3.85;0.80;;;32.80;41.00;;;;;;5062698;28;20182;-73
2023/12/28 06:07:05;;;;;;;2.78;0.88;;;32.20;41.20;;;;;;5059446;28;20240;-69
2023/12/28 06:09:32;;;;;;;2.22;0.75;;;31.80;41.70;;;;;;5060589;28;20229;-74
2023/12/28 06:12:00;;;;;;;3.53;0.65;;;32.80;41.00;;;;;;5061402;28;20222;-69
2023/12/28 06:14:27;;;;;;;0.77;0.57;;;32.80;41.40;;;;;;5058175;28;20252;-72
2023/12/28 06:16:55;;;;;;;4.50;0.70;;;33.10;40.80;;;;;;5063396;28;20227;-70
2023/12/28 06:19:22;;;;;;;3.13;0.80;;;32.80;42.20;;;;;;5064621;28;20668;-70
2023/12/28 06:21:50;;;;;;;1.92;0.70;;;32.40;41.30;;;;;;5063210;28;20336;-69
2023/12/28 06:24:17;;;;;;;2.28;0.73;;;31.80;42.50;;;;;;5059968;28;20207;-73
2023/12/28 06:26:45;;;;;;;2.75;0.77;;;32.10;42.60;;;;;;5061991;28;20564;-68
2023/12/28 06:29:13;;;;;;;4.57;1.30;;;33.20;41.30;;;;;;5061839;28;20242;-69
2023/12/28 06:31:40;;;;;;;3.08;0.88;;;32.60;42.00;;;;;;5061505;28;20599;-69
2023/12/28 06:34:07;;;;;;;1.38;0.70;;;32.30;41.60;;;;;;5063852;28;20175;-70
2023/12/28 06:36:35;;;;;;;1.77;0.55;;;31.90;42.10;;;;;;5065299;28;20210;-69
2023/12/28 06:39:03;;;;;;;1.45;0.60;;;31.40;43.70;;;;;;5057620;28;20204;-69
2023/12/28 06:41:30;;;;;;;2.40;0.63;;;31.60;43.60;;;;;;5052832;28;20281;-69
2023/12/28 06:43:58;;;;;;;1.02;0.60;;;31.00;45.60;;;;;;5064404;28;20180;-68
2023/12/28 06:46:25;;;;;;;2.85;0.82;;;30.80;45.50;;;;;;5053013;28;20188;-68
2023/12/28 06:48:52;;;;;;;2.05;0.75;;;31.40;44.20;;;;;;5057258;28;20203;-68
2023/12/28 06:51:21;;;;;;;2.13;0.68;;;31.70;43.50;;;;;;5047166;28;20233;-67
2023/12/28 06:53:49;;;;;;;3.20;0.93;;;31.30;44.40;;;;;;5058037;28;20183;-67
2023/12/28 06:56:16;;;;;;;1.52;0.70;;;31.40;43.40;;;;;;5067767;28;20703;-67
2023/12/28 06:58:44;;;;;;;0.70;0.70;;;31.30;43.50;;;;;;5065647;28;20183;-68
2023/12/28 07:01:11;;;;;;;2.65;0.70;;;30.90;43.30;;;;;;5070466;28;20263;-68
2023/12/28 07:03:38;;;;;;;0.93;0.77;;;30.50;45.40;;;;;;5058551;28;21254;-68
2023/12/28 07:06:08;;;;;;;1.05;0.70;;;31.30;42.70;;;;;;5058265;28;20183;-68
2023/12/28 07:08:36;;;;;;;1.58;0.65;;;31.70;41.80;;;;;;5061625;28;20175;-69
2023/12/28 07:11:03;;;;;;;4.00;0.80;;;32.40;41.20;;;;;;5060583;28;20187;-68
2023/12/28 07:13:30;;;;;;;1.75;0.68;;;32.40;42.20;;;;;;5061378;28;20180;-68
2023/12/28 07:15:58;;;;;;;2.75;1.23;;;32.10;41.80;;;;;;5061695;28;20297;-70
2023/12/28 07:18:25;;;;;;;4.90;1.20;;;32.00;41.90;;;;;;5057743;28;20552;-68
2023/12/28 07:20:52;;;;;;;4.00;1.30;;;31.10;43.70;;;;;;5051640;28;20246;-68
2023/12/28 07:23:20;;;;;;;6.10;1.30;;;29.60;47.00;;;;;;5056249;28;20195;-68
2023/12/28 07:25:50;;;;;;;1.40;0.70;;;29.00;49.90;;;;;;5059568;28;20609;-67
2023/12/28 07:28:17;;;;;;;2.83;0.88;;;28.50;51.40;;;;;;5058771;28;20544;-68
2023/12/28 07:30:45;;;;;;;2.97;0.80;;;28.40;51.40;;;;;;5048745;28;20179;-68
2023/12/28 07:33:12;;;;;;;2.17;0.90;;;28.20;52.90;;;;;;5066501;28;20543;-68
2023/12/28 07:35:39;;;;;;;3.30;0.80;;;27.80;52.80;;;;;;5058653;28;20190;-67
2023/12/28 07:38:07;;;;;;;4.47;1.03;;;27.80;53.10;;;;;;5059047;28;20654;-69
2023/12/28 07:40:34;;;;;;;4.87;0.83;;;27.60;53.40;;;;;;5058924;28;20236;-68
2023/12/28 07:43:01;;;;;;;1.90;0.83;;;27.60;53.30;;;;;;5063582;28;20184;-67
2023/12/28 07:45:29;;;;;;;1.37;0.57;;;27.50;52.70;;;;;;5057186;28;20222;-67
2023/12/28 07:47:56;;;;;;;2.20;0.80;;;27.30;53.00;;;;;;5059824;28;20186;-67
2023/12/28 07:50:24;;;;;;;4.00;0.73;;;27.30;53.90;;;;;;5057367;28;20179;-70
2023/12/28 07:52:51;;;;;;;3.73;0.70;;;27.20;53.50;;;;;;5057391;28;20183;-67
2023/12/28 07:55:19;;;;;;;4.07;0.90;;;27.10;54.20;;;;;;5063911;28;20183;-68
2023/12/28 07:57:46;;;;;;;2.07;0.90;;;27.00;55.10;;;;;;5059359;28;20669;-67
2023/12/28 08:00:14;;;;;;;1.50;0.83;;;26.80;55.90;;;;;;5060247;28;20614;-68
2023/12/28 08:02:42;;;;;;;1.80;0.70;;;27.00;55.40;;;;;;5061813;28;20211;-68
2023/12/28 08:05:10;;;;;;;3.73;0.97;;;27.10;54.70;;;;;;5062922;28;20175;-67
2023/12/28 08:07:37;;;;;;;3.63;0.90;;;26.90;56.00;;;;;;5059879;28;20187;-66
2023/12/28 08:10:05;;;;;;;2.70;0.90;;;26.80;58.20;;;;;;5061792;28;20183;-67
2023/12/28 08:12:32;;;;;;;2.93;1.07;;;26.60;59.00;;;;;;5061880;28;20184;-67
2023/12/28 08:15:00;;;;;;;2.47;0.80;;;26.30;58.90;;;;;;5063294;28;20237;-67
2023/12/28 08:17:28;;;;;;;1.70;0.60;;;26.10;59.60;;;;;;5067228;28;20236;-68
2023/12/28 08:19:55;;;;;;;4.23;1.00;;;26.00;59.90;;;;;;5052736;28;20207;-70
2023/12/28 08:22:23;;;;;;;3.17;0.70;;;25.90;60.30;;;;;;5058632;28;20184;-73
2023/12/28 08:24:50;;;;;;;3.27;0.80;;;25.70;60.40;;;;;;5058994;28;20194;-68
2023/12/28 08:27:17;;;;;;;2.63;0.70;;;25.50;60.10;;;;;;5062592;28;20273;-67
2023/12/28 08:29:45;;;;;;;5.57;1.03;;;25.40;61.60;;;;;;5065238;28;21008;-68
2023/12/28 08:32:13;;;;;;;2.23;1.27;;;25.40;60.60;;;;;;5059951;28;20275;-71
2023/12/28 08:34:40;;;;;;;3.20;1.47;;;25.40;60.90;;;;;;5057390;28;20191;-69
2023/12/28 08:37:07;;;;;;;2.67;1.40;;;25.50;60.90;;;;;;5062674;28;20175;-68
2023/12/28 08:39:34;;;;;;;4.00;2.00;;;25.60;60.70;;;;;;5056294;28;20253;-72
2023/12/28 08:42:02;;;;;;;2.20;1.00;;;25.30;61.30;;;;;;5065598;28;20242;-73
2023/12/28 08:44:29;;;;;;;1.17;0.80;;;25.30;62.10;;;;;;5060160;28;20182;-68
2023/12/28 08:46:56;;;;;;;3.30;1.30;;;25.30;61.90;;;;;;5063596;28;20175;-68
2023/12/28 08:49:24;;;;;;;2.30;1.10;;;25.10;62.70;;;;;;5054638;28;20188;-71
2023/12/28 08:51:51;;;;;;;2.63;1.00;;;25.00;63.50;;;;;;5047614;28;20270;-72
2023/12/28 08:54:18;;;;;;;4.73;1.23;;;24.80;64.10;;;;;;5058402;28;20203;-71
2023/12/28 08:56:46;;;;;;;2.67;1.00;;;24.70;64.50;;;;;;5048732;28;20203;-68
2023/12/28 08:59:13;;;;;;;3.53;0.93;;;24.70;65.10;;;;;;5071386;28;20199;-74
2023/12/28 09:01:40;;;;;;;2.67;0.63;;;24.60;65.40;;;;;;5059378;28;20241;-67
2023/12/28 09:04:08;;;;;;;3.33;1.10;;;24.50;65.50;;;;;;5052392;28;20180;-68
2023/12/28 09:09:57;;;;;;;1.73;1.00;;;24.50;65.80;;;;;;5045981;28;20195;-67
2023/12/28 09:12:24;;;;;;;2.23;1.00;;;24.50;66.20;;;;;;5052313;28;20646;-67
2023/12/28 09:14:52;;;;;;;5.30;1.10;;;24.40;66.50;;;;;;5051399;28;20168;-68
2023/12/28 09:17:22;;;;;;;6.80;1.00;;;24.40;67.20;;;;;;5042177;28;20184;-69
2023/12/28 09:19:49;;;;;;;3.90;1.10;;;24.40;67.20;;;;;;5051765;28;20222;-67
2023/12/28 09:22:17;;;;;;;4.03;0.90;;;24.30;67.20;;;;;;5052595;28;20184;-69
2023/12/28 09:24:44;;;;;;;3.17;1.00;;;24.30;67.70;;;;;;5051836;28;20191;-68
2023/12/28 09:27:11;;;;;;;4.30;1.10;;;24.30;68.00;;;;;;5051964;28;20237;-67
2023/12/28 09:29:39;;;;;;;5.00;1.20;;;24.30;67.90;;;;;;5048166;28;20206;-68
2023/12/28 09:32:07;;;;;;;3.17;1.10;;;24.30;68.20;;;;;;5058609;28;20221;-67
2023/12/28 09:34:34;;;;;;;4.20;1.10;;;24.20;67.90;;;;;;5068122;28;20172;-67
2023/12/28 09:37:01;;;;;;;2.73;1.20;;;24.10;68.10;;;;;;5051660;28;20270;-67
2023/12/28 09:39:29;;;;;;;4.10;1.10;;;24.10;68.10;;;;;;5041258;28;20614;-70
2023/12/28 09:42:08;;;;;;;3.63;1.40;;;24.20;68.10;;;;;;5054407;28;20216;-68
2023/12/28 09:44:39;;;;;;;6.73;1.50;;;24.20;68.20;;;;;;5054467;28;20645;-68
2023/12/28 09:47:06;;;;;;;3.03;1.23;;;24.30;67.90;;;;;;5052301;28;20168;-67
2023/12/28 09:49:36;;;;;;;2.67;1.10;;;24.20;68.20;;;;;;5052298;28;20180;-70
2023/12/28 09:52:03;;;;;;;2.53;0.90;;;24.30;68.20;;;;;;5051927;28;20498;-67
2023/12/28 09:54:30;;;;;;;3.93;1.00;;;24.10;68.70;;;;;;5053300;28;20244;-67
2023/12/28 09:56:58;;;;;;;2.17;0.97;;;24.10;68.70;;;;;;5062306;28;20650;-70
2023/12/28 09:59:27;;;;;;;3.97;0.93;;;24.10;69.10;;;;;;5068982;28;20584;-70
2023/12/28 10:01:56;;;;;;;1.90;1.00;;;24.10;68.90;;;;;;5052405;28;20207;-67
2023/12/28 10:04:23;;;;;;;3.57;1.60;;;24.10;68.80;;;;;;5045114;28;20266;-67
2023/12/28 10:06:51;;;;;;;3.10;1.30;;;24.00;69.30;;;;;;5055571;28;20176;-68
2023/12/28 10:09:18;;;;;;;3.33;1.30;;;24.00;69.20;;;;;;5052463;28;20317;-68
2023/12/28 10:11:45;;;;;;;3.90;1.30;;;23.90;69.20;;;;;;5056131;28;20234;-67
2023/12/28 10:14:13;;;;;;;2.07;1.33;;;23.90;69.40;;;;;;5056733;28;20607;-67
2023/12/28 10:16:44;;;;;;;2.33;1.20;;;23.90;69.30;;;;;;5056825;28;20179;-68
2023/12/28 10:19:11;;;;;;;3.23;1.23;;;24.00;69.30;;;;;;5075708;28;20222;-71
2023/12/28 10:21:40;;;;;;;4.17;1.20;;;24.00;68.90;;;;;;5057345;28;20184;-68
2023/12/28 10:24:10;;;;;;;4.17;1.50;;;23.90;69.10;;;;;;5055339;28;20639;-67
2023/12/28 10:26:37;;;;;;;4.37;1.70;;;23.90;69.30;;;;;;5055111;28;20174;-69
2023/12/28 10:29:05;;;;;;;6.80;2.00;;;23.90;69.50;;;;;;5058958;28;20179;-69
2023/12/28 10:31:32;;;;;;;6.30;1.57;;;23.80;69.40;;;;;;5054526;28;20175;-68
2023/12/28 10:34:02;;;;;;;4.40;1.53;;;23.80;69.50;;;;;;5054692;28;20706;-72
2023/12/28 10:36:32;;;;;;;4.63;1.60;;;23.80;69.50;;;;;;5052999;28;20245;-67
2023/12/28 10:39:01;;;;;;;3.97;1.30;;;23.80;69.50;;;;;;5047337;28;20215;-68
2023/12/28 10:41:35;;;;;;;7.70;1.40;;;23.80;69.60;;;;;;5054523;28;20242;-71
2023/12/28 10:44:03;;;;;;;5.40;1.27;;;23.80;69.80;;;;;;5047291;28;20243;-67
2023/12/28 10:46:33;;;;;;;2.27;1.10;;;23.80;70.00;;;;;;5032396;28;20273;-71
2023/12/28 10:49:16;;;;;;;5.03;1.30;;;23.80;70.40;;;;;;5035167;28;20665;-70
2023/12/28 10:51:48;;;;;;;2.67;1.00;;;23.70;70.50;;;;;;5037598;28;20547;-72
2023/12/28 10:54:28;;;;;;;2.27;0.90;;;23.70;70.60;;;;;;5045600;28;20264;-73
2023/12/28 10:57:06;;;;;;;2.37;0.80;;;23.70;70.90;;;;;;5048807;28;20203;-68
2023/12/28 11:00:11;;;;;;;3.97;1.00;;;23.70;71.20;;;;;;5054022;28;20605;-68
2023/12/28 11:02:53;;;;;;;5.23;1.00;;;23.60;71.40;;;;;;4979517;28;20194;-74
2023/12/28 11:05:24;;;;;;;4.37;1.00;;;23.50;72.00;;;;;;5063764;28;20650;-70
2023/12/28 11:07:57;;;;;;;3.60;1.00;;;23.60;72.30;;;;;;5070426;28;20660;-68
2023/12/28 11:10:26;;;;;;;2.50;0.80;;;23.50;72.30;;;;;;5047511;28;20184;-69
2023/12/28 11:12:55;;;;;;;4.17;1.10;;;23.50;72.40;;;;;;5054247;28;20288;-67
2023/12/28 11:15:24;;;;;;;3.43;1.10;;;23.50;72.80;;;;;;5053377;28;20264;-69
2023/12/28 11:17:51;;;;;;;4.23;1.00;;;23.50;73.00;;;;;;5056120;28;20176;-68
2023/12/28 11:20:19;;;;;;;4.20;1.10;;;23.60;72.80;;;;;;5051624;28;20223;-68
2023/12/28 11:22:48;;;;;;;3.70;1.00;;;23.50;72.70;;;;;;5053998;28;20178;-74
2023/12/28 11:25:19;;;;;;;3.57;0.90;;;23.40;72.90;;;;;;5054126;28;20540;-73
2023/12/28 11:27:47;;;;;;;3.60;0.97;;;23.50;73.30;;;;;;5063907;28;20175;-67
2023/12/28 11:30:15;;;;;;;3.10;0.80;;;23.50;72.80;;;;;;5063668;28;20176;-68
2023/12/28 11:32:43;;;;;;;5.47;1.20;;;23.50;73.00;;;;;;5055192;28;20180;-68
2023/12/28 11:35:17;;;;;;;3.23;0.80;;;23.50;72.90;;;;;;5055456;28;20262;-68
2023/12/28 11:37:52;;;;;;;4.30;1.03;;;23.40;73.10;;;;;;5067640;28;20190;-68
2023/12/28 11:40:19;;;;;;;5.13;1.20;;;23.40;73.40;;;;;;5058753;28;20631;-69
2023/12/28 11:42:54;;;;;;;5.50;1.50;;;23.30;73.20;;;;;;5048134;28;20271;-67
2023/12/28 11:45:24;;;;;;;3.57;0.97;;;23.30;73.40;;;;;;5060936;28;20175;-67
2023/12/28 11:48:02;;;;;;;4.83;1.27;;;23.30;73.60;;;;;;5073489;28;20180;-67
2023/12/28 11:50:29;;;;;;;5.47;1.13;;;23.20;73.80;;;;;;5060958;28;20206;-68
2023/12/28 11:52:56;;;;;;;3.07;1.13;;;23.20;73.80;;;;;;5053713;28;20179;-68
2023/12/28 11:55:24;;;;;;;3.70;1.30;;;23.20;74.10;;;;;;5047842;28;20255;-69
2023/12/28 11:57:52;;;;;;;7.03;1.10;;;23.10;74.40;;;;;;5052474;28;20183;-67
2023/12/28 12:00:20;;;;;;;1.73;1.00;;;23.10;74.70;;;;;;5052599;28;20631;-67
2023/12/28 12:02:47;;;;;;;1.30;0.80;;;23.20;74.90;;;;;;5053319;28;20187;-69
2023/12/28 12:05:15;;;;;;;4.33;1.33;;;23.10;74.70;;;;;;5053081;28;20186;-67
2023/12/28 12:07:43;;;;;;;6.67;1.37;;;23.10;75.00;;;;;;5053214;28;20175;-67
2023/12/28 12:10:16;;;;;;;2.47;1.10;;;23.10;75.00;;;;;;5052797;28;20831;-67
2023/12/28 12:12:44;;;;;;;5.33;1.23;;;23.10;75.10;;;;;;5043240;28;20591;-67
2023/12/28 12:15:12;;;;;;;3.33;1.03;;;23.10;75.20;;;;;;5053404;28;20543;-67
2023/12/28 12:17:39;;;;;;;2.07;1.07;;;23.00;75.10;;;;;;5052029;28;20697;-67
2023/12/28 12:20:09;;;;;;;7.10;1.77;;;23.00;75.40;;;;;;5054879;28;20743;-68
2023/12/28 12:22:37;;;;;;;4.37;1.00;;;23.00;75.30;;;;;;5059695;28;20199;-67
2023/12/28 12:25:08;;;;;;;5.67;1.50;;;23.00;75.20;;;;;;5052269;28;20164;-67
2023/12/28 12:27:40;;;;;;;4.80;1.00;;;22.90;75.40;;;;;;5052321;28;20192;-68
2023/12/28 12:30:09;;;;;;;3.17;1.00;;;22.90;75.60;;;;;;5048672;28;20179;-68
2023/12/28 12:32:39;;;;;;;3.80;1.17;;;22.90;75.80;;;;;;5051284;28;20196;-68
2023/12/28 12:35:06;;;;;;;3.27;1.27;;;22.90;75.90;;;;;;5068869;28;20190;-68
2023/12/28 12:37:34;;;;;;;3.80;1.27;;;22.90;76.00;;;;;;5052932;28;20239;-68
2023/12/28 12:40:02;;;;;;;1.40;1.00;;;22.80;76.20;;;;;;5066768;28;20207;-67
2023/12/28 12:42:29;;;;;;;5.73;1.60;;;22.80;76.20;;;;;;5050574;28;20276;-69
2023/12/28 12:44:56;;;;;;;3.57;1.10;;;22.80;76.40;;;;;;5046328;28;20194;-68
2023/12/28 12:47:24;;;;;;;3.90;1.17;;;22.80;76.50;;;;;;5072519;28;20635;-68
2023/12/28 12:49:56;;;;;;;4.20;1.37;;;22.80;76.50;;;;;;5053665;28;20656;-68
2023/12/28 12:52:25;;;;;;;4.57;1.47;;;22.80;76.60;;;;;;5034952;28;20257;-68
2023/12/28 12:54:59;;;;;;;3.07;1.17;;;22.80;76.70;;;;;;5052344;28;20272;-67